Terminal Aerodrome Forecast
Issued by NWS

Home | Current Version | Previous Version | Text Only | Print | Product List | Glossary On
Versions: 1 2 3 4 5 6 7 8 9 10 11 12 13 14 15
782
FTUS41 KCAR 212337
TAFBHB
TAF
KBHB 212337Z 2200/2224 21012KT P6SM SCT200 WS020/22040KT
     FM220600 21010KT P6SM BKN200
     FM221200 21010KT P6SM VCSH OVC040
     FM221400 20010KT 3SM -RA BR OVC010
     FM221600 20010KT 2SM RA BR OVC006
     FM222100 36010KT 3SM -RA BR OVC004=

USA.gov is the U.S. government's official web portal to all federal, state and local government web resources and services.